Tiempo atmosférico en la estación meteorológica de Pola de Somiedo, Asturias (668 m.)



Fecha
DESCASC
Temp. máxima en grados centígrados (hora)
DESCASC
Temp. mínima en grados centígrados (hora)
DESCASC
Temp. media en grados centígrados
DESCASC
Racha de viento máxima en m/sg (hora)
DESCASC
Velocidad máxima media en intervalos de 10 minutos(hora)
DESCASC
Precipitaciones diarias en mm
DESCASC
Precipitaciones de 00:00 a 06:00 en mm
DESCASC
Precipitaciones de 06:00 a 12:00 en mm
DESCASC
Precipitaciones de 12:00 a 18:00 en mm
DESCASC
Precipitaciones de 18:00 a 24:00 en mm
DESCASC
19-04-2018 25.8 (16:50) 5.8 (07:40) 15.8 7.22 (14:40) 4.17 (15:00) 0 0 0 0 0
18-04-2018 27.2 (18:10) 6 (04:50) 16.6 9.17 (06:30) 3.89 (14:40) 0 0 0 0 0
17-04-2018 25.1 (17:40) 9.3 (23:59) 17.2 9.72 (00:20) 3.89 (00:10) 0 0 0 0 0
16-04-2018 19.2 (18:10) 1.9 (08:30) 10.6 11.11 (23:59) 3.89 (14:10) 0.4 0.4 0 0 0
15-04-2018 16.1 (15:30) 8.3 (00:00) 12.2 9.17 (13:40) 3.61 (11:50) 0 0 0 0 0
14-04-2018 17.9 (18:00) 4.1 (00:00) 11 8.06 (14:10) 3.33 (13:20) 0 0 0 0 0
13-04-2018 9.9 (13:50) 6.5 (00:00) 8.2 4.44 (14:20) 2.5 (14:20) 7.8 0 0.2 4.4 3.2
12-04-2018 13.1 (15:50) 1.4 (00:00) 7.3 10 (17:20) 4.72 (17:00) 0 0 0 0 0
11-04-2018 8.6 (17:20) 2.1 (00:00) 5.4 5.56 (14:20) 2.78 (19:00) 2.4 0.4 0.2 0.4 1.4
10-04-2018 8.4 (14:30) 2.2 (00:00) 5.3 9.72 (03:30) 5 (14:50) 10.8 1.8 3.2 1.4 4.4
09-04-2018 9.1 (18:00) 3.9 (00:00) 6.5 6.39 (15:40) 2.78 (15:40) 5.2 1 3 1.2 0
08-04-2018 14 (16:30) 1.4 (00:00) 7.7 6.39 (17:10) 3.06 (17:10) 6.8 0 0 0.2 6.6
07-04-2018 14.8 (17:40) 5 (00:00) 9.9 7.78 (14:50) 3.89 (14:50) 0.2 0.2 0 0 0
06-04-2018 18.1 (16:20) 8 (00:00) 13.1 15.83 (07:10) 6.11 (03:10) 7.4 0 0 0 7.4
05-04-2018 15.6 (14:40) 1.1 (00:00) 8.4 12.22 (21:40) 5.83 (15:00) 0 0 0 0 0
04-04-2018 13.3 (13:20) 4.4 (00:00) 8.9 14.17 (05:50) 6.39 (05:50) 3.4 1.4 0.2 0.6 1.2
03-04-2018 12 (13:50) 6.1 (00:00) 9 19.72 (14:30) 7.22 (13:00) 8.2 0.2 2.6 0.6 4.8
02-04-2018 14.1 (00:00) 9.6 (00:00) 11.9 16.11 (19:10) 5.83 (19:10) 6 0 3 2.4 0.6
01-04-2018 15.5 (16:40) 5.1 (00:00) 10.3 15.28 (12:20) 6.11 (14:00) 1 0.8 0 0.2 0
31-03-2018 9.4 (16:50) 1.3 (00:00) 5.3 10.56 (00:50) 4.44 (15:50) 7.6 6.6 1 0 0
30-03-2018 6.6 (13:10) 0.7 (00:00) 3.6 15 (11:40) 6.67 (11:40) 8.6 2.2 0 1.6 4.8
29-03-2018 10 (14:00) -0.6 (-00:0) 4.7 10 (14:10) 3.89 (14:10) 7.6 0 0.2 1.2 6.2
28-03-2018 12.9 (13:20) 3 (00:00) 7.9 8.33 (08:20) 4.17 (07:40) 2.8 0 0 0.8 2
27-03-2018 18.5 (17:20) 1.1 (00:00) 9.8 9.44 (17:00) 4.44 (17:00) 0 0 0 0 0
26-03-2018 11.9 (16:00) -0.5 (-00:0) 5.7 8.33 (22:40) 4.17 (22:40) 0.6 0 0 0 0.6
25-03-2018 5.6 (14:40) 1.9 (00:00) 3.7 10 (14:00) 4.72 (14:00) 4.6 0.4 0.8 3.4 0
24-03-2018 5.2 (13:30) 2.1 (00:00) 3.6 18.89 (06:00) 7.5 (06:00) 39.6 4.8 14.2 20.2 0.4
23-03-2018 14.6 (15:20) 3.2 (00:00) 8.9 12.22 (17:40) 5.56 (17:40) 10.2 3.2 0.8 0 6.2

Gráficas

Temp. máximas Temp. mínimas Temp. medias Precipitaciones Rachas de viento máximas Velocidades máximas media en intervalos de 10 minutos

Datos horarios

Fecha y hora oficial Temperatura (ºC) Velocidad del viento (km/h) Dirección del viento Racha (km/h) Dirección de racha Precipitación (mm) Presión (hPa) Tendencia (hPa) Humedad (%)
2018-04-21 23:00:00 12.5 2 Sur 4 Sur 0 -- -- 76
2018-04-21 22:00:00 14.6 0 Calma 10 Sur 0 -- -- 70
2018-04-21 21:00:00 17.2 3 Sudoeste 9 Sudoeste 0 -- -- 64
2018-04-21 20:00:00 19.7 4 Sur 9 Sudoeste 0 -- -- 48
2018-04-21 19:00:00 20.9 0 Calma 12 Sudoeste 0 -- -- 45
2018-04-21 18:00:00 21.3 3 Sur 15 Sudoeste 0 -- -- 44
2018-04-21 17:00:00 20.9 8 Sur 20 Sudoeste 0 -- -- 46
2018-04-21 16:00:00 20.4 8 Sudoeste 24 Sudoeste 0 -- -- 49
2018-04-21 15:00:00 21.5 10 Sur 24 Sur 0 -- -- 43
2018-04-21 14:00:00 21.7 13 Sudoeste 30 Sudoeste 0 -- -- 43
2018-04-21 13:00:00 20 10 Sur 25 Sudoeste 0 -- -- 49
2018-04-21 12:00:00 19 6 Sur 24 Sudoeste 0 -- -- 50
2018-04-21 11:00:00 17.7 9 Sur 28 Sur 0 -- -- 53
2018-04-21 10:00:00 15.7 7 Sur 27 Sudeste 0 -- -- 58
2018-04-21 09:00:00 10.3 0 Calma 5 Sudeste 0 -- -- 83
2018-04-21 08:00:00 11.4 2 Norte 15 Sudoeste 0 -- -- 75
2018-04-21 07:00:00 14.4 7 Sudoeste 25 Sur 0 -- -- 62
2018-04-21 06:00:00 15.6 8 Sur 24 Sur 0 -- -- 57
2018-04-21 05:00:00 15.2 7 Sur 25 Sur 0 -- -- 60
2018-04-21 04:00:00 13.4 8 Sur 21 Sur 0 -- -- 68
2018-04-21 03:00:00 7.8 3 Norte 8 Oeste 0 -- -- 90
2018-04-21 02:00:00 8 0 Calma 6 Sur 0 -- -- 88
2018-04-21 01:00:00 8.8 2 Sur 5 Sur 0 -- -- 84
2018-04-21 00:00:00 9.8 2 Sur 6 Sur 0 -- -- 80
2018-04-20 23:00:00 11.4 0 Calma 5 Sudeste 0 -- -- 74
2018-04-20 22:00:00 13.5 0 Calma 4 Sudoeste 0 -- -- 66
2018-04-20 21:00:00 16.6 0 Calma 7 Sudoeste 0 -- -- 56
2018-04-20 20:00:00 20 4 Sudoeste 18 Sudoeste 0 -- -- 44
2018-04-20 19:00:00 23 7 Sur 26 Sudoeste 0 -- -- 37
2018-04-20 18:00:00 23.3 6 Sudoeste 25 Sudoeste 0 -- -- 38
2018-04-20 17:00:00 24.4 6 Sur 25 Sur 0 -- -- 39
2018-04-20 16:00:00 23.6 9 Sudoeste 22 Sudoeste 0 -- -- 42
2018-04-20 15:00:00 24.1 12 Sur 28 Sudoeste 0 -- -- 37
2018-04-20 14:00:00 24.1 11 Sur 25 Sudoeste 0 -- -- 42
2018-04-20 13:00:00 22.4 9 Sur 22 Sudoeste 0 -- -- 43
2018-04-20 12:00:00 20.3 11 Sur 23 Sur 0 -- -- 52
2018-04-20 11:00:00 11.6 3 Norte 8 Norte 0 -- -- 97
2018-04-20 10:00:00 7.9 0 Calma 4 Sudoeste 0 -- -- 100
2018-04-20 09:00:00 6.8 0 Calma 5 Oeste 0 -- -- 100
2018-04-20 08:00:00 6.6 0 Calma 5 Sudeste 0 -- -- 99
2018-04-20 07:00:00 6.9 2 Sur 6 Este 0 -- -- 98
2018-04-20 06:00:00 7.3 4 Sur 6 Sudeste 0 -- -- 98
2018-04-20 05:00:00 7.9 0 Calma 6 Sudeste 0 -- -- 95
2018-04-20 04:00:00 8.7 2 Nordeste 5 Sudeste 0 -- -- 95
2018-04-20 03:00:00 9.4 0 Calma 5 Sur 0 -- -- 92
2018-04-20 02:00:00 9.8 0 Calma -- -- 0 -- -- 92
2018-04-20 01:00:00 9.9 0 Calma -- -- 0 -- -- 91
2018-04-20 00:00:00 10.9 0 Calma 4 Sur 0 -- -- 87
2018-04-19 23:00:00 12.9 0 Calma 10 Noroeste 0 -- -- 82
2018-04-19 22:00:00 15.3 2 Nordeste 12 Noroeste 0 -- -- 74
2018-04-19 21:00:00 16.5 5 Noroeste 19 Norte 0 -- -- 72
2018-04-19 20:00:00 18.4 8 Norte 21 Norte 0 -- -- 67
2018-04-19 19:00:00 20.7 6 Norte 20 Norte 0 -- -- 64
2018-04-19 18:00:00 21.3 10 Norte 25 Norte 0 -- -- 60
2018-04-19 17:00:00 25.3 10 Sudoeste 24 Sur 0 -- -- 38
2018-04-19 16:00:00 25.3 8 Sur 26 Sudoeste 0 -- -- 37
2018-04-19 15:00:00 25.1 15 Sur 26 Sudoeste 0 -- -- 38
2018-04-19 14:00:00 24.2 7 Sur 23 Sur 0 -- -- 40
2018-04-19 13:00:00 22.9 2 Noroeste 18 Sur 0 -- -- 44
2018-04-19 12:00:00 18.2 3 Nordeste 5 Norte 0 -- -- 64
2018-04-19 11:00:00 9.3 0 Calma 5 Sudoeste 0 -- -- 100
2018-04-19 10:00:00 6.7 0 Calma 4 Sudoeste 0 -- -- 99
2018-04-19 09:00:00 6.2 0 Calma 4 Sudeste 0 -- -- 99
2018-04-19 08:00:00 5.8 3 Sur 6 Sudoeste 0 -- -- 98
2018-04-19 07:00:00 6 0 Calma 5 Sudeste 0 -- -- 98
2018-04-19 06:00:00 6.3 0 Calma 4 Sudeste 0 -- -- 96
2018-04-19 05:00:00 6.9 2 Sur 3 Sudoeste 0 -- -- 96
2018-04-19 04:00:00 7.3 0 Calma 3 Sur 0 -- -- 95
2018-04-19 03:00:00 7.9 0 Calma 3 Sudeste 0 -- -- 93
2018-04-19 02:00:00 8.6 0 Calma 5 Sudoeste 0 -- -- 91
2018-04-19 01:00:00 9.6 0 Calma 4 Sur 0 -- -- 88
2018-04-19 00:00:00 10.5 2 Sur 5 Sudeste 0 -- -- 85
2018-04-18 23:00:00 12.1 2 Sur 3 Sudoeste 0 -- -- 80
2018-04-18 22:00:00 14.7 0 Calma 6 Sudeste 0 -- -- 72
2018-04-18 21:00:00 18.2 3 Sur 17 Norte 0 -- -- 61
2018-04-18 20:00:00 20.1 8 Norte 17 Norte 0 -- -- 54
2018-04-18 19:00:00 24.7 4 Sudoeste 10 Sudoeste 0 -- -- 41
2018-04-18 18:00:00 27.1 4 Sur 14 Sudoeste 0 -- -- 30
2018-04-18 17:00:00 26.6 6 Sur 24 Sudoeste 0 -- -- 31
2018-04-18 16:00:00 26.2 9 Sur 28 Sur 0 -- -- 32
2018-04-18 15:00:00 25.3 11 Sur 31 Sur 0 -- -- 34
2018-04-18 14:00:00 25.2 13 Sur 29 Sudoeste 0 -- -- 37
2018-04-18 13:00:00 24.1 9 Sur 26 Sur 0 -- -- 36
2018-04-18 12:00:00 22.5 10 Sur 24 Sudoeste 0 -- -- 36
2018-04-18 11:00:00 17.7 3 Nordeste 20 Sudeste 0 -- -- 47
2018-04-18 10:00:00 17 5 Sudeste 26 Sur 0 -- -- 46
2018-04-18 09:00:00 17.1 7 Sudeste 29 Sur 0 -- -- 46
2018-04-18 08:00:00 17 12 Sur 32 Sur 0 -- -- 44
2018-04-18 07:00:00 16.5 7 Sur 33 Sudeste 0 -- -- 45
2018-04-18 06:00:00 8.7 6 Nordeste 19 Sudeste 0 -- -- 73
2018-04-18 05:00:00 6 3 Oeste 8 Sudeste 0 -- -- 92
2018-04-18 04:00:00 6.4 0 Calma 5 Sudeste 0 -- -- 91
2018-04-18 03:00:00 7.2 0 Calma 5 Sudoeste 0 -- -- 90
2018-04-18 02:00:00 7.6 0 Calma 5 Sudoeste 0 -- -- 90
2018-04-18 01:00:00 8.4 2 Sur 5 Sur 0 -- -- 87
2018-04-18 00:00:00 9.3 2 Sur 5 Sudoeste 0 -- -- 84
2018-04-17 23:00:00 10.7 2 Sur 4 Sudeste 0 -- -- 81
2018-04-17 22:00:00 13.1 0 Calma 7 Sur 0 -- -- 73
2018-04-17 21:00:00 16.6 3 Sur 21 Nordeste 0 -- -- 61
2018-04-17 20:00:00 18.3 8 Norte 22 Nordeste 0 -- -- 56
2018-04-17 19:00:00 22.4 3 Sudoeste 11 Sudoeste 0 -- -- 37
2018-04-17 18:00:00 24.9 6 Sur 17 Este 0 -- -- 25
2018-04-17 17:00:00 24.9 4 Sudeste 15 Sur 0 -- -- 25
2018-04-17 16:00:00 24.6 5 Sur 23 Sudoeste 0 -- -- 28
2018-04-17 15:00:00 24.3 8 Sudoeste 28 Sur 0 -- -- 23
2018-04-17 14:00:00 23.2 11 Sur 27 Sudeste 0 -- -- 21
2018-04-17 13:00:00 22.1 6 Sudeste 23 Sudeste 0 -- -- 26
2018-04-17 12:00:00 20.7 9 Sur 32 Sudeste 0 -- -- 26
2018-04-17 11:00:00 17.2 14 Sur 32 Sur 0 -- -- 29
2018-04-17 10:00:00 15.4 7 Sudeste 30 Sudoeste 0 -- -- 28
2018-04-17 09:00:00 14.2 12 Sur 32 Sudeste 0 -- -- 39
2018-04-17 08:00:00 14.4 12 Sur 27 Sur 0 -- -- 37
2018-04-17 07:00:00 14.1 11 Sur 28 Sur 0 -- -- 40
2018-04-17 06:00:00 14 11 Sur 26 Sudoeste 0 -- -- 42
2018-04-17 05:00:00 14.2 10 Sur 28 Sudeste 0 -- -- 38
2018-04-17 04:00:00 12.4 3 Sur 35 Sur 0 -- -- 52
2018-04-17 03:00:00 14.6 10 Sur 27 Sur 0 -- -- 45
2018-04-17 02:00:00 13.6 8 Sur 32 Sudoeste 0 -- -- 51
2018-04-17 01:00:00 13.9 9 Sur 35 Sudeste 0 -- -- 50
2018-04-17 00:00:00 14.3 11 Sur 40 Sudeste 0 -- -- 49
2018-04-16 23:00:00 14.3 12 Sudeste 25 Sur 0 -- -- 50
2018-04-16 22:00:00 14.6 9 Sur 29 Sudoeste 0 -- -- 50
2018-04-16 21:00:00 15.7 8 Sur 22 Sur 0 -- -- 48
2018-04-16 20:00:00 16.6 6 Sur 24 Sur 0 -- -- 37
2018-04-16 19:00:00 18.1 9 Sur 24 Sudoeste 0 -- -- 30
2018-04-16 18:00:00 19 8 Sur 27 Sudeste 0 -- -- 25
2018-04-16 17:00:00 19 9 Sur 24 Sur 0 -- -- 32
2018-04-16 16:00:00 18.5 13 Sur 24 Sur 0 -- -- 30
2018-04-16 15:00:00 17.6 8 Sur 24 Sudoeste 0 -- -- 29
2018-04-16 14:00:00 16.4 11 Sur 28 Sur 0 -- -- 33
2018-04-16 13:00:00 15 11 Sur 24 Sudoeste 0 -- -- 43
2018-04-16 12:00:00 12.8 10 Sur 28 Sudoeste 0 -- -- 48
2018-04-16 11:00:00 8.2 12 Sur 31 Sudeste 0 -- -- 65
2018-04-16 10:00:00 2.2 0 Calma 4 Oeste 0 -- -- 100
2018-04-16 09:00:00 1.9 2 Sur 5 Sudeste 0 -- -- 99
2018-04-16 08:00:00 2.1 0 Calma 5 Sudoeste 0 -- -- 98
2018-04-16 07:00:00 3 0 Calma 5 Oeste 0 -- -- 97
2018-04-16 06:00:00 4.2 0 Calma 3 Sudeste 0 -- -- 97
2018-04-16 05:00:00 5.1 2 Sur 8 Sur 0 -- -- 96
2018-04-16 04:00:00 5.9 2 Sur 4 Oeste 0 -- -- 96
2018-04-16 03:00:00 6.6 0 Calma 5 Sudeste 0.2 -- -- 95
2018-04-16 02:00:00 7 3 Sur 6 Sur 0 -- -- 95
2018-04-16 01:00:00 7.8 0 Calma 10 Nordeste 0.2 -- -- 91
2018-04-16 00:00:00 8.3 2 Norte 10 Norte 0 -- -- 88
2018-04-15 23:00:00 8.9 4 Norte 14 Norte 0 -- -- 87
2018-04-15 22:00:00 9.4 7 Norte 16 Norte 0 -- -- 84
2018-04-15 21:00:00 10 7 Norte 17 Norte 0 -- -- 81
2018-04-15 20:00:00 11 7 Norte 19 Norte 0 -- -- 77
2018-04-15 19:00:00 11.8 8 Norte 22 Nordeste 0 -- -- 72
2018-04-15 18:00:00 13.3 12 Norte 23 Norte 0 -- -- 62
2018-04-15 17:00:00 15.8 7 Sur 24 Este 0 -- -- 43
2018-04-15 16:00:00 15.9 9 Sur 27 Sur 0 -- -- 44
2018-04-15 15:00:00 15.6 7 Sudeste 24 Sudeste 0 -- -- 46
2018-04-15 14:00:00 15.4 10 Sur 33 Sudeste 0 -- -- 46
2018-04-15 13:00:00 14.9 10 Sudoeste 28 Sur 0 -- -- 51
2018-04-15 12:00:00 13.7 8 Sudeste 26 Sudeste 0 -- -- 49
2018-04-15 11:00:00 12.9 4 Sur 18 Sur 0 -- -- 56
2018-04-15 10:00:00 12.8 6 Sur 17 Sur 0 -- -- 57
2018-04-15 09:00:00 12.3 5 Sur 16 Sur 0 -- -- 59
2018-04-15 08:00:00 12.2 6 Sur 19 Sur 0 -- -- 63
2018-04-15 07:00:00 12.3 7 Sur 22 Sudoeste 0 -- -- 66
2018-04-15 06:00:00 12.2 8 Sur 19 Sudoeste 0 -- -- 67
2018-04-15 05:00:00 12.1 6 Sur 18 Sur 0 -- -- 68
2018-04-15 04:00:00 12 4 Sur 25 Sur 0 -- -- 69
2018-04-15 03:00:00 12.1 3 Sur 27 Sudoeste 0 -- -- 66
2018-04-15 02:00:00 12.3 8 Sur 22 Sur 0 -- -- 64
2018-04-15 01:00:00 12.2 8 Sur 26 Sudeste 0 -- -- 62
2018-04-15 00:00:00 13.2 9 Sur 28 Sudeste 0 -- -- 57
2018-04-14 23:00:00 12.9 6 Sur 17 Sur 0 -- -- 56
2018-04-14 22:00:00 13.5 2 Sudeste 19 Sudoeste 0 -- -- 57
2018-04-14 21:00:00 13.7 4 Sur 14 Sudoeste 0 -- -- 55
2018-04-14 20:00:00 14.8 5 Sur 19 Sudeste 0 -- -- 52
2018-04-14 19:00:00 16.7 5 Sur 25 Sudeste 0 -- -- 48
2018-04-14 18:00:00 17.9 6 Sur 19 Este 0 -- -- 42
2018-04-14 17:00:00 17.5 4 Nordeste 18 Este 0 -- -- 41
2018-04-14 16:00:00 17 9 Sudeste 27 Sudeste 0 -- -- 44
2018-04-14 15:00:00 16.4 11 Sudeste 29 Sur 0 -- -- 44
2018-04-14 14:00:00 15.7 10 Sur 27 Sur 0 -- -- 48
2018-04-14 13:00:00 14.7 9 Sur 25 Sudoeste 0 -- -- 53
2018-04-14 12:00:00 12.4 8 Sur 19 Sudoeste 0 -- -- 65
2018-04-14 11:00:00 5.5 3 Norte 5 Norte 0 -- -- 100
2018-04-14 10:00:00 4.1 2 Oeste 4 Sur 0 -- -- 100
2018-04-14 09:00:00 4.2 0 Calma 5 Sur 0 -- -- 100
2018-04-14 08:00:00 5.3 0 Calma 4 Sudoeste 0 -- -- 100
2018-04-14 07:00:00 5.6 2 Sudeste 4 Sudeste 0 -- -- 100
2018-04-14 06:00:00 5.5 0 Calma 3 Oeste 0 -- -- 100
2018-04-14 05:00:00 5.8 0 Calma 5 Sudeste 0 -- -- 100
2018-04-14 04:00:00 6 0 Calma 3 Sudoeste 0 -- -- 100
2018-04-14 03:00:00 6.2 0 Calma 3 Sudoeste 0 -- -- 99
2018-04-14 02:00:00 7 0 Calma 2 Oeste 0 -- -- 99
2018-04-14 01:00:00 7.4 0 Calma 2 Sudeste 0 -- -- 100
2018-04-14 00:00:00 7.5 0 Calma 2 Este 0 -- -- 100
2018-04-13 23:00:00 7.6 0 Calma 2 Sur 0.2 -- -- 99
2018-04-13 22:00:00 7.7 0 Calma 3 Sur 0 -- -- 98
2018-04-13 21:00:00 7.8 0 Calma 6 Noroeste 1 -- -- 97
2018-04-13 20:00:00 8.1 5 Norte 13 Norte 1.8 -- -- 96
2018-04-13 19:00:00 8.9 4 Noroeste 13 Noroeste 0.2 -- -- 92
2018-04-13 18:00:00 8.7 8 Norte 15 Nordeste 0 -- -- 89
2018-04-13 17:00:00 9.3 0 Calma 7 Noroeste 0 -- -- 86
2018-04-13 16:00:00 8.4 3 Norte 12 Norte 1.2 -- -- 92
2018-04-13 15:00:00 8.8 6 Noroeste 16 Norte 1 -- -- 93
2018-04-13 14:00:00 9.9 2 Noroeste 8 Norte 0.4 -- -- 82
2018-04-13 13:00:00 8.8 0 Calma 12 Norte 1.8 -- -- 90
2018-04-13 12:00:00 9.1 6 Norte 13 Norte 0.2 -- -- 89
2018-04-13 11:00:00 8.8 2 Norte 4 Nordeste 0 -- -- 89
2018-04-13 10:00:00 7.9 0 Calma -- -- 0 -- -- 90
2018-04-13 09:00:00 7.1 0 Calma -- -- 0 -- -- 94
2018-04-13 08:00:00 6.6 0 Calma -- -- 0 -- -- 96
2018-04-13 07:00:00 6.5 0 Calma -- -- 0 -- -- 96
2018-04-13 06:00:00 6.5 0 Calma 3 Sudoeste 0 -- -- 95
2018-04-13 05:00:00 6.5 0 Calma 2 Sudoeste 0 -- -- 95
2018-04-13 04:00:00 6.6 0 Calma 2 Sur 0 -- -- 94
2018-04-13 03:00:00 6.6 2 Sur 4 Sudoeste 0 -- -- 93
2018-04-13 02:00:00 6.6 0 Calma 4 Sudoeste 0 -- -- 91
2018-04-13 01:00:00 6.6 0 Calma 3 Sur 0 -- -- 92
2018-04-13 00:00:00 7.1 0 Calma 4 Sudoeste 0 -- -- 88
2018-04-12 23:00:00 7.8 0 Calma 7 Sudoeste 0 -- -- 81
2018-04-12 22:00:00 9.4 2 Sur 11 Sudoeste 0 -- -- 70
2018-04-12 21:00:00 10.1 8 Sudoeste 26 Sur 0 -- -- 67
2018-04-12 20:00:00 11 7 Sur 29 Sudoeste 0 -- -- 63
2018-04-12 19:00:00 11.5 11 Sudoeste 26 Sur 0 -- -- 62
2018-04-12 18:00:00 12.1 13 Sur 36 Sudoeste 0 -- -- 60
2018-04-12 17:00:00 12.7 17 Sudoeste 33 Sudoeste 0 -- -- 58
2018-04-12 16:00:00 12.6 16 Sur 31 Sudoeste 0 -- -- 58
2018-04-12 15:00:00 11.7 11 Sur 27 Sudoeste 0 -- -- 62
2018-04-12 14:00:00 12.4 11 Sur 27 Sur 0 -- -- 56
2018-04-12 13:00:00 11.3 15 Sur 30 Sur 0 -- -- 62
2018-04-12 12:00:00 10.2 10 Sur 27 Sur 0 -- -- 69
2018-04-12 11:00:00 6.9 3 Norte 5 Norte 0 -- -- 99
2018-04-12 10:00:00 3.9 2 Sudeste 4 Sudeste 0 -- -- 100
2018-04-12 09:00:00 2.1 0 Calma 5 Noroeste 0 -- -- 100
2018-04-12 08:00:00 1.4 2 Sur 5 Sur 0 -- -- 100
2018-04-12 07:00:00 1.5 0 Calma 5 Oeste 0 -- -- 100
2018-04-12 06:00:00 1.9 2 Sur 5 Sudoeste 0 -- -- 99
2018-04-12 05:00:00 3 2 Sur 4 Sudeste 0 -- -- 98
2018-04-12 04:00:00 4.8 3 Sur 5 Sudeste 0 -- -- 100
2018-04-12 03:00:00 5 0 Calma -- -- 0 -- -- 99
2018-04-12 02:00:00 5.2 0 Calma 3 Oeste 0 -- -- 99
2018-04-12 01:00:00 6 2 Sudeste 3 Este 0 -- -- 100
2018-04-12 00:00:00 6.1 0 Calma 2 Oeste 0.2 -- -- 99
2018-04-11 23:00:00 6.2 2 Sur 9 Noroeste 0.2 -- -- 98
2018-04-11 22:00:00 6.5 5 Norte 14 Norte 0.6 -- -- 95
2018-04-11 21:00:00 7 2 Noroeste 11 Noroeste 0 -- -- 92
2018-04-11 20:00:00 7.1 5 Norte 20 Nordeste 0.2 -- -- 93
2018-04-11 19:00:00 7.6 10 Norte 20 Norte 0.2 -- -- 88
2018-04-11 18:00:00 8.4 6 Norte 12 Norte 0.2 -- -- 86
2018-04-11 17:00:00 8.1 4 Norte 15 Norte 0.2 -- -- 81
2018-04-11 16:00:00 8.1 6 Norte 14 Norte 0 -- -- 80
2018-04-11 15:00:00 8.5 7 Norte 20 Este 0 -- -- 77
2018-04-11 14:00:00 7.6 5 Norte 12 Noroeste 0 -- -- 75
2018-04-11 13:00:00 6.9 7 Nordeste 14 Este 0 -- -- 72
2018-04-11 12:00:00 6.3 6 Norte 10 Norte 0 -- -- 80
2018-04-11 11:00:00 4.5 0 Calma 7 Norte 0 -- -- 88
2018-04-11 10:00:00 3.6 2 Sudeste 5 Sudeste 0 -- -- 97
2018-04-11 09:00:00 2.7 0 Calma 5 Oeste 0 -- -- 100
2018-04-11 08:00:00 2.5 3 Noroeste 7 Norte 0.2 -- -- 100
2018-04-11 07:00:00 2.5 0 Calma 5 Sur 0 -- -- 100
2018-04-11 06:00:00 2.6 3 Sudoeste 4 Sudoeste 0 -- -- 99
2018-04-11 05:00:00 2.5 3 Noroeste 8 Noroeste 0.2 -- -- 100
2018-04-11 04:00:00 2.5 0 Calma 5 Noroeste 0.2 -- -- 100
2018-04-11 03:00:00 2.4 0 Calma 4 Noroeste 0 -- -- 100
2018-04-11 02:00:00 2.2 2 Norte 5 Norte 0 -- -- 99
2018-04-11 01:00:00 2.1 0 Calma 9 Norte 0 -- -- 99
2018-04-11 00:00:00 2.5 5 Noroeste 10 Norte 0.4 -- -- 97
2018-04-10 23:00:00 2.5 2 Norte 6 Norte 0 -- -- 97
2018-04-10 22:00:00 2.4 3 Norte 8 Norte 0 -- -- 98
2018-04-10 21:00:00 2.5 0 Calma 4 Sur 0.4 -- -- 96
2018-04-10 20:00:00 2.5 3 Sur 6 Noroeste 0.6 -- -- 96
2018-04-10 19:00:00 2.4 3 Norte 13 Noroeste 3 -- -- 95
2018-04-10 18:00:00 4.1 9 Noroeste 30 Nordeste 1.4 -- -- 87
2018-04-10 17:00:00 7.4 9 Norte 21 Norte 0 -- -- 72
2018-04-10 16:00:00 7 6 Norte 24 Norte 0 -- -- 68
2018-04-10 15:00:00 6.1 16 Norte 31 Nordeste 0 -- -- 74
2018-04-10 14:00:00 7.4 4 Norte 23 Norte 0 -- -- 65
2018-04-10 13:00:00 7.2 6 Nordeste 13 Nordeste 0 -- -- 68
2018-04-10 12:00:00 4.9 5 Sur 15 Sur 0.2 -- -- 85
2018-04-10 11:00:00 3.4 2 Sur 10 Noroeste 1 -- -- 93
2018-04-10 10:00:00 3.6 4 Noroeste 8 Oeste 0.8 -- -- 93
2018-04-10 09:00:00 4.6 3 Sur 9 Sur 0.2 -- -- 96
2018-04-10 08:00:00 4.7 0 Calma 3 Sudoeste 0.6 -- -- 99
2018-04-10 07:00:00 5 2 Sudeste 5 Noroeste 0.4 -- -- 99
2018-04-10 06:00:00 5.2 0 Calma 6 Oeste 0.8 -- -- 97
2018-04-10 05:00:00 5.8 2 Norte 9 Sudeste 0.8 -- -- 93
2018-04-10 04:00:00 7.1 4 Sudeste 35 Este 0.2 -- -- 81
2018-04-10 03:00:00 6.9 3 Sur 17 Sudeste 0 -- -- 81
2018-04-10 02:00:00 6.1 4 Sudoeste 11 Sudoeste 0 -- -- 83
2018-04-10 01:00:00 4.6 4 Noroeste 8 Este 0 -- -- 96
2018-04-10 00:00:00 4.5 3 Sudoeste 8 Oeste 0 -- -- 96
2018-04-09 23:00:00 4 2 Sur 5 Sudoeste 0 -- -- 96
2018-04-09 22:00:00 4.8 2 Sur 6 Oeste 0 -- -- 91
2018-04-09 21:00:00 7.2 2 Sudoeste 5 Noroeste 0 -- -- 86
2018-04-09 20:00:00 8.1 3 Noroeste 9 Noroeste 0 -- -- 79
2018-04-09 19:00:00 8.8 4 Norte 15 Este 0 -- -- 76
2018-04-09 18:00:00 9.1 6 Este 13 Este 0 -- -- 70
2018-04-09 17:00:00 8.2 0 Calma 21 Norte 0.2 -- -- 79
2018-04-09 16:00:00 7.9 5 Norte 23 Norte 0 -- -- 82
2018-04-09 15:00:00 7 2 Noroeste 5 Noroeste 0.2 -- -- 92
2018-04-09 14:00:00 6.5 5 Norte 20 Norte 0.2 -- -- 91
2018-04-09 13:00:00 6.7 9 Norte 17 Norte 0.6 -- -- 89
2018-04-09 12:00:00 6.6 6 Norte 17 Norte 0.4 -- -- 92
2018-04-09 11:00:00 6.3 3 Norte 6 Norte 0.8 -- -- 97
2018-04-09 10:00:00 5.9 2 Norte 5 Sudoeste 0.2 -- -- 98
2018-04-09 09:00:00 5.7 0 Calma 5 Nordeste 0.6 -- -- 98
2018-04-09 08:00:00 5.6 2 Norte 10 Norte 0.6 -- -- 96
2018-04-09 07:00:00 5.4 2 Este 4 Sur 0.4 -- -- 99
2018-04-09 06:00:00 5.4 3 Norte 4 Norte 0.4 -- -- 99
2018-04-09 05:00:00 5.5 0 Calma 2 Norte 0.4 -- -- 98
2018-04-09 04:00:00 5.6 0 Calma 3 Norte 0 -- -- 98
2018-04-09 03:00:00 5.5 0 Calma 3 Oeste 0 -- -- 98
2018-04-09 02:00:00 5.5 0 Calma 2 Sudeste 0 -- -- 98
2018-04-09 01:00:00 5.3 0 Calma 2 Nordeste 0.2 -- -- 97
2018-04-09 00:00:00 5.4 0 Calma 6 Sur 0.2 -- -- 95
2018-04-08 23:00:00 5.9 3 Sudeste 9 Sur 2.2 -- -- 92
2018-04-08 22:00:00 7.2 5 Sur 15 Sur 4.2 -- -- 88
2018-04-08 21:00:00 8.8 7 Norte 18 Norte 0 -- -- 86
2018-04-08 20:00:00 9.7 8 Norte 21 Norte 0 -- -- 81
2018-04-08 19:00:00 10.2 6 Norte 14 Norte 0 -- -- 78
2018-04-08 18:00:00 11.2 4 Sur 23 Norte 0.2 -- -- 69
2018-04-08 17:00:00 13.6 7 Norte 22 Norte 0 -- -- 61
2018-04-08 16:00:00 13.1 6 Norte 17 Este 0 -- -- 58
2018-04-08 15:00:00 12 6 Norte 15 Norte 0 -- -- 64
2018-04-08 14:00:00 12.9 2 Noroeste 14 Sudeste 0 -- -- 57
2018-04-08 13:00:00 12.9 5 Sur 19 Sur 0 -- -- 54
2018-04-08 12:00:00 12.8 6 Sudeste 21 Sur 0 -- -- 58
2018-04-08 11:00:00 4 0 Calma 5 Sudeste 0 -- -- 100
2018-04-08 10:00:00 1.9 0 Calma 6 Oeste 0 -- -- 100
2018-04-08 09:00:00 1.6 0 Calma 6 Oeste 0 -- -- 100
2018-04-08 08:00:00 1.4 3 Sur 5 Sudoeste 0 -- -- 99
2018-04-08 07:00:00 2 3 Sur 5 Sudoeste 0 -- -- 98
2018-04-08 06:00:00 2.9 0 Calma 4 Sudoeste 0 -- -- 98
2018-04-08 05:00:00 2.9 2 Sur 4 Sudoeste 0 -- -- 98
2018-04-08 04:00:00 3.4 0 Calma 4 Sudoeste 0 -- -- 96
2018-04-08 03:00:00 4.2 0 Calma 3 Sur 0 -- -- 96
2018-04-08 02:00:00 3.8 2 Sur 4 Sudoeste 0 -- -- 97
2018-04-08 01:00:00 4.6 2 Sudoeste 4 Sudoeste 0 -- -- 93
2018-04-08 00:00:00 6 2 Sudoeste 4 Sur 0 -- -- 90
2018-04-07 23:00:00 6.7 0 Calma 15 Noroeste 0 -- -- 88
2018-04-07 22:00:00 7.4 5 Norte 19 Noroeste 0 -- -- 84
2018-04-07 21:00:00 8.5 8 Noroeste 18 Norte 0 -- -- 78
2018-04-07 20:00:00 9.5 9 Norte 27 Norte 0 -- -- 73
2018-04-07 19:00:00 11.8 11 Norte 22 Norte 0 -- -- 69
2018-04-07 18:00:00 14.5 8 Sur 17 Sudoeste 0 -- -- 46
2018-04-07 17:00:00 13.9 7 Sudoeste 24 Sur 0 -- -- 48
2018-04-07 16:00:00 14.1 5 Sur 21 Sur 0 -- -- 46
2018-04-07 15:00:00 13.4 11 Sur 28 Sudoeste 0 -- -- 49
2018-04-07 14:00:00 12.6 6 Sur 22 Sudeste 0 -- -- 48
2018-04-07 13:00:00 12.7 8 Sur 26 Sur 0 -- -- 51
2018-04-07 12:00:00 11.1 11 Sur 23 Sudoeste 0 -- -- 57
2018-04-07 11:00:00 9.1 4 Sudeste 25 Sudoeste 0 -- -- 63
2018-04-07 10:00:00 8 8 Sur 21 Sudoeste 0 -- -- 72
2018-04-07 09:00:00 6 4 Norte 15 Sur 0 -- -- 95
2018-04-07 08:00:00 5.5 4 Nordeste 10 Norte 0 -- -- 95
2018-04-07 07:00:00 5.1 4 Nordeste 8 Oeste 0 -- -- 100
2018-04-07 06:00:00 5.1 2 Norte 7 Norte 0 -- -- 99
2018-04-07 05:00:00 5.3 3 Norte 8 Noroeste 0 -- -- 99
2018-04-07 04:00:00 5.8 0 Calma 5 Sudoeste 0 -- -- 97
2018-04-07 03:00:00 6.6 3 Oeste 6 Sur 0 -- -- 98
2018-04-07 02:00:00 7.2 0 Calma 6 Noroeste 0 -- -- 98
2018-04-07 01:00:00 7.7 2 Sudoeste 10 Norte 0.2 -- -- 98
2018-04-07 00:00:00 8 0 Calma 7 Oeste 0.2 -- -- 97
2018-04-06 23:00:00 8.2 0 Calma 5 Noroeste 0.4 -- -- 97
2018-04-06 22:00:00 8.3 0 Calma 12 Norte 2.4 -- -- 96
2018-04-06 21:00:00 8.5 3 Norte 11 Noroeste 4 -- -- 95
2018-04-06 20:00:00 9.7 5 Norte 17 Norte 0.4 -- -- 88
2018-04-06 19:00:00 10.7 7 Norte 24 Norte 0 -- -- 80
2018-04-06 18:00:00 12.1 12 Norte 44 Nordeste 0 -- -- 74
2018-04-06 17:00:00 17.4 11 Sur 35 Sudoeste 0 -- -- 43
2018-04-06 16:00:00 17.5 12 Sur 25 Sur 0 -- -- 45
2018-04-06 15:00:00 16.8 15 Sudoeste 28 Sudoeste 0 -- -- 48
2018-04-06 14:00:00 17.8 9 Sur 37 Sudoeste 0 -- -- 45
2018-04-06 13:00:00 16.9 14 Sur 39 Sur 0 -- -- 49
2018-04-06 12:00:00 15.9 14 Sur 39 Sur 0 -- -- 50
2018-04-06 11:00:00 13.1 14 Sur 42 Sudoeste 0 -- -- 57
2018-04-06 10:00:00 12.2 15 Sur 39 Sudoeste 0 -- -- 61
2018-04-06 09:00:00 11.6 15 Sur 32 Sur 0 -- -- 61
2018-04-06 08:00:00 12 14 Sur 57 Sudoeste 0 -- -- 53
2018-04-06 07:00:00 12.2 9 Sur 32 Sur 0 -- -- 51
2018-04-06 06:00:00 12.6 12 Sur 48 Sur 0 -- -- 51
2018-04-06 05:00:00 12.3 14 Sur 47 Sudoeste 0 -- -- 55
2018-04-06 04:00:00 12.4 18 Sur 48 Sudoeste 0 -- -- 55
2018-04-06 03:00:00 12.8 21 Sur 42 Sur 0 -- -- 51
2018-04-06 02:00:00 13.1 16 Sur 47 Sudoeste 0 -- -- 49
2018-04-06 01:00:00 13.3 16 Sur 41 Sudoeste 0 -- -- 50
2018-04-06 00:00:00 13.1 12 Sur 41 Sudoeste 0 -- -- 51
2018-04-05 23:00:00 13.1 17 Sur 39 Sudoeste 0 -- -- 51
2018-04-05 22:00:00 13.3 14 Sur 44 Sur 0 -- -- 52
2018-04-05 21:00:00 13.6 12 Sur 39 Sudoeste 0 -- -- 52
2018-04-05 20:00:00 14.1 13 Sur 33 Sur 0 -- -- 52
2018-04-05 19:00:00 14.4 17 Sur 36 Sur 0 -- -- 52
2018-04-05 18:00:00 15.1 11 Sudoeste 40 Sudoeste 0 -- -- 51
2018-04-05 17:00:00 14.9 15 Sur 42 Sudoeste 0 -- -- 48
2018-04-05 16:00:00 14.8 17 Sudoeste 32 Sur 0 -- -- 45
2018-04-05 15:00:00 15 21 Sur 39 Sur 0 -- -- 48
2018-04-05 14:00:00 14.8 17 Sur 39 Sudoeste 0 -- -- 45
2018-04-05 13:00:00 14.2 19 Sur 39 Sudoeste 0 -- -- 46
2018-04-05 12:00:00 12.7 12 Sur 33 Sur 0 -- -- 47
2018-04-05 11:00:00 9.9 13 Sur 39 Sur 0 -- -- 55
2018-04-05 10:00:00 9.2 13 Sur 37 Sur 0 -- -- 56
2018-04-05 09:00:00 3.9 4 Sur 26 Sudeste 0 -- -- 85
2018-04-05 08:00:00 1.8 4 Norte 8 Norte 0 -- -- 98
2018-04-05 07:00:00 1.2 2 Sur 5 Oeste 0 -- -- 99
2018-04-05 06:00:00 1.1 3 Sur 7 Sur 0 -- -- 99
2018-04-05 05:00:00 1.4 3 Sur 7 Sudoeste 0 -- -- 98
2018-04-05 04:00:00 1.8 0 Calma 5 Sudeste 0 -- -- 98
2018-04-05 03:00:00 2.2 0 Calma 6 Sudoeste 0 -- -- 97
2018-04-05 02:00:00 3 3 Sur 5 Sur 0 -- -- 96
2018-04-05 01:00:00 3.9 0 Calma 8 Oeste 0 -- -- 94
2018-04-05 00:00:00 5.1 2 Norte 7 Sudoeste 0 -- -- 90
2018-04-04 23:00:00 7.5 0 Calma 28 Sudeste 0 -- -- 80
2018-04-04 22:00:00 9 7 Nordeste 24 Sudeste 0.2 -- -- 73
2018-04-04 21:00:00 8.9 2 Oeste 26 Nordeste 0.2 -- -- 92
2018-04-04 20:00:00 9.9 8 Nordeste 23 Nordeste 0.2 -- -- 76
2018-04-04 19:00:00 10.5 3 Este 19 Norte 0.6 -- -- 77
2018-04-04 18:00:00 12.5 3 Sur 30 Nordeste 0 -- -- 61
2018-04-04 17:00:00 12.2 6 Sudeste 14 Sudeste 0.2 -- -- 68
2018-04-04 16:00:00 12 4 Norte 14 Norte 0.2 -- -- 65
2018-04-04 15:00:00 12.2 4 Norte 23 Sudeste 0.2 -- -- 69
2018-04-04 14:00:00 12.7 6 Sur 25 Norte 0 -- -- 59
2018-04-04 13:00:00 12.8 8 Sur 23 Sudeste 0 -- -- 58
2018-04-04 12:00:00 11.2 5 Este 19 Sudeste 0 -- -- 65
2018-04-04 11:00:00 9.8 3 Sur 13 Sudeste 0 -- -- 67
2018-04-04 10:00:00 7.9 3 Norte 9 Sudoeste 0.2 -- -- 87
2018-04-04 09:00:00 8.2 2 Oeste 21 Sudeste 0 -- -- 80
2018-04-04 08:00:00 8.9 12 Sudeste 37 Sudeste 0 -- -- 64
2018-04-04 07:00:00 8.8 13 Sudeste 41 Sudeste 0 -- -- 64
2018-04-04 06:00:00 9 20 Sudeste 51 Sudeste 0 -- -- 62
2018-04-04 05:00:00 8.8 17 Sudeste 43 Sudeste 0 -- -- 63
2018-04-04 04:00:00 7.8 14 Sur 40 Sudeste 0.2 -- -- 68
2018-04-04 03:00:00 7.7 15 Sudeste 45 Sudeste 0 -- -- 68
2018-04-04 02:00:00 5.7 9 Sudeste 24 Sudeste 0 -- -- 75
2018-04-04 01:00:00 5.6 3 Sur 27 Sudeste 1.2 -- -- 90
2018-04-04 00:00:00 7.2 8 Sur 28 Sudoeste 0 -- -- 70
2018-04-03 23:00:00 7.1 7 Sur 35 Sudeste 0 -- -- 69
2018-04-03 22:00:00 6.4 7 Sur 28 Este 0.8 -- -- 79
2018-04-03 21:00:00 7.1 5 Sur 41 Sudeste 2.4 -- -- 83
2018-04-03 20:00:00 8.5 12 Sur 57 Sudeste 1.4 -- -- 73
2018-04-03 19:00:00 10.1 14 Sur 69 Sudeste 0.2 -- -- 61
2018-04-03 18:00:00 11 22 Sudeste 66 Sudeste 0 -- -- 58
2018-04-03 17:00:00 10.8 21 Sudeste 53 Sudeste 0.2 -- -- 62
2018-04-03 16:00:00 11 19 Sur 48 Sur 0.2 -- -- 61
2018-04-03 15:00:00 11.6 12 Sur 71 Sudeste 0.2 -- -- 60
2018-04-03 14:00:00 11 19 Sudeste 60 Sudeste 0 -- -- 62
2018-04-03 13:00:00 11 26 Sudeste 61 Sudeste 0 -- -- 58
2018-04-03 12:00:00 10.8 22 Sudeste 62 Sudeste 0 -- -- 58
2018-04-03 11:00:00 9.3 21 Sudeste 49 Sudeste 0 -- -- 62
2018-04-03 10:00:00 9.1 13 Sur 43 Sudeste 0.2 -- -- 64
2018-04-03 09:00:00 8.5 14 Sudeste 40 Sudeste 0 -- -- 68
2018-04-03 08:00:00 7 5 Sur 33 Este 1 -- -- 90
2018-04-03 07:00:00 8.2 7 Sur 33 Sur 1.4 -- -- 81
2018-04-03 06:00:00 11 17 Sudeste 45 Sudeste 0 -- -- 59
2018-04-03 05:00:00 11.3 14 Sur 45 Sur 0 -- -- 57
2018-04-03 04:00:00 11.1 10 Sudeste 36 Sudeste 0 -- -- 63
2018-04-03 03:00:00 11.3 13 Sur 45 Sudeste 0 -- -- 60
2018-04-03 02:00:00 11 18 Sudeste 56 Sur 0 -- -- 63
2018-04-03 01:00:00 11.2 17 Sudeste 58 Sudeste 0.2 -- -- 67
2018-04-03 00:00:00 11.1 19 Sudeste 38 Sudeste 0.2 -- -- 68
2018-04-02 23:00:00 10.9 8 Sur 39 Sudeste 0.2 -- -- 69
2018-04-02 22:00:00 11.3 13 Sur 33 Sudeste 0.2 -- -- 66
2018-04-02 21:00:00 12 10 Sur 53 Sudeste 0 -- -- 63
2018-04-02 20:00:00 13 14 Sur 58 Sudeste 0 -- -- 56
2018-04-02 19:00:00 13.1 19 Sudeste 49 Sudeste 0 -- -- 54
2018-04-02 18:00:00 12.8 9 Sudeste 38 Sudeste 0 -- -- 65
2018-04-02 17:00:00 13.2 16 Sudeste 42 Sudeste 0.2 -- -- 62
2018-04-02 16:00:00 12.5 10 Sudeste 29 Sudeste 0 -- -- 71
2018-04-02 15:00:00 12.1 13 Sur 37 Sur 0 -- -- 67
2018-04-02 14:00:00 11 18 Sur 41 Sur 0.4 -- -- 71
2018-04-02 13:00:00 10 16 Sur 41 Sudoeste 1.8 -- -- 77
2018-04-02 12:00:00 10.2 16 Sur 41 Sudoeste 2.8 -- -- 73
2018-04-02 11:00:00 10.8 11 Sur 44 Sudeste 0.2 -- -- 72
2018-04-02 10:00:00 11.9 12 Sur 35 Sudeste 0 -- -- 62
2018-04-02 09:00:00 11.3 15 Sur 33 Sudoeste 0 -- -- 65
2018-04-02 08:00:00 10.7 10 Sur 35 Sudoeste 0 -- -- 71
2018-04-02 07:00:00 12.3 13 Sur 36 Sur 0 -- -- 59
2018-04-02 06:00:00 13.3 17 Sur 48 Sudeste 0 -- -- 51
2018-04-02 05:00:00 13 7 Sur 29 Sudeste 0 -- -- 54
2018-04-02 04:00:00 13.4 12 Sur 37 Sudoeste 0 -- -- 54
2018-04-02 03:00:00 13.5 14 Sur 37 Sur 0 -- -- 54
2018-04-02 02:00:00 13.7 11 Sur 30 Sudoeste 0 -- -- 53
2018-04-02 01:00:00 13.9 13 Sur 40 Sudeste 0 -- -- 52
2018-04-02 00:00:00 14.1 15 Sur 38 Sur 0 -- -- 53
2018-04-01 23:00:00 13.8 11 Sur 36 Sudoeste 0 -- -- 55
2018-04-01 22:00:00 13.4 10 Sur 31 Sudoeste 0 -- -- 59
2018-04-01 21:00:00 13.3 7 Sur 26 Sur 0 -- -- 60
2018-04-01 20:00:00 14 12 Sur 30 Sur 0 -- -- 57
2018-04-01 19:00:00 14.4 13 Sur 39 Sudoeste 0 -- -- 56
2018-04-01 18:00:00 15.4 16 Sudoeste 37 Sudoeste 0 -- -- 53
2018-04-01 17:00:00 15.2 14 Sur 35 Sur 0 -- -- 52
2018-04-01 16:00:00 14.6 12 Sur 41 Sudoeste 0 -- -- 51
2018-04-01 15:00:00 13.8 15 Sur 50 Sudoeste 0 -- -- 55
2018-04-01 14:00:00 12.7 22 Sudoeste 43 Sur 0.2 -- -- 60
2018-04-01 13:00:00 11.5 17 Sudoeste 55 Sur 0 -- -- 64
2018-04-01 12:00:00 11.2 18 Sur 42 Sur 0 -- -- 64
2018-04-01 11:00:00 10.9 17 Sur 38 Sur 0 -- -- 67
2018-04-01 10:00:00 10.5 12 Sur 32 Sudeste 0 -- -- 71
2018-04-01 09:00:00 7.9 12 Sur 24 Sudoeste 0 -- -- 88
2018-04-01 08:00:00 5.2 3 Norte 9 Sudoeste 0 -- -- 100
2018-04-01 07:00:00 5.2 0 Calma 6 Sudoeste 0 -- -- 100
2018-04-01 06:00:00 5.2 3 Sudoeste 5 Sudoeste 0 -- -- 99
2018-04-01 05:00:00 5.3 0 Calma 4 Sur 0.4 -- -- 99
2018-04-01 04:00:00 5.4 2 Norte 4 Sudeste 0 -- -- 97
2018-04-01 03:00:00 5.7 2 Norte 11 Este 0.4 -- -- 94
2018-04-01 02:00:00 5.7 2 Noroeste 6 Este 0 -- -- 90
2018-04-01 01:00:00 5.6 0 Calma 4 Sur 0 -- -- 88
2018-04-01 00:00:00 5.5 0 Calma 4 Este 0 -- -- 84
2018-03-31 23:00:00 5.9 0 Calma 6 Este 0 -- -- 79
2018-03-31 22:00:00 6.9 0 Calma 4 Sudeste 0 -- -- 79
2018-03-31 21:00:00 8 0 Calma 5 Sudeste 0 -- -- 69
2018-03-31 20:00:00 9.1 3 Sudeste 10 Este 0 -- -- 56
2018-03-31 19:00:00 9.3 2 Norte 13 Este 0 -- -- 55
2018-03-31 18:00:00 9.4 4 Norte 24 Este 0 -- -- 56
2018-03-31 17:00:00 9.4 8 Nordeste 22 Nordeste 0 -- -- 55
2018-03-31 16:00:00 8.4 14 Nordeste 30 Nordeste 0 -- -- 57
2018-03-31 15:00:00 7.8 3 Sur 16 Sur 0 -- -- 66
2018-03-31 14:00:00 7.1 6 Sudeste 26 Nordeste 0 -- -- 67
2018-03-31 13:00:00 7.2 9 Nordeste 28 Nordeste 0 -- -- 67
2018-03-31 12:00:00 6.5 9 Este 29 Este 0 -- -- 66
2018-03-31 11:00:00 4.8 6 Este 26 Nordeste 0 -- -- 76
2018-03-31 10:00:00 3.3 5 Este 12 Este 0 -- -- 86
2018-03-31 09:00:00 1.8 4 Sur 13 Oeste 0 -- -- 96
2018-03-31 08:00:00 1.3 4 Sudoeste 8 Sudeste 0.2 -- -- 99
2018-03-31 07:00:00 1.6 2 Sudoeste 15 Norte 0.8 -- -- 98
2018-03-31 06:00:00 1.9 2 Sudeste 5 Sudeste 1.6 -- -- 99
2018-03-31 05:00:00 2.2 2 Sur 7 Oeste 0.8 -- -- 99
2018-03-31 04:00:00 2.3 3 Este 30 Este 1.2 -- -- 98
2018-03-31 03:00:00 2.5 2 Sur 8 Oeste 1.6 -- -- 96
2018-03-31 02:00:00 3.1 4 Norte 26 Este 0.6 -- -- 91
2018-03-31 01:00:00 3.7 6 Sudeste 38 Este 0.8 -- -- 84
2018-03-31 00:00:00 2.8 9 Nordeste 25 Este 1.4 -- -- 89
2018-03-30 23:00:00 1.7 4 Este 8 Sudeste 0.8 -- -- 94
2018-03-30 22:00:00 2.9 4 Este 16 Sur 0 -- -- 84
2018-03-30 21:00:00 3.1 3 Norte 16 Oeste 0.2 -- -- 86
2018-03-30 20:00:00 2.9 3 Noroeste 43 Este 1.8 -- -- 89
2018-03-30 19:00:00 4.2 5 Sur 38 Sudeste 0.6 -- -- 84
2018-03-30 18:00:00 4.6 13 Sudeste 32 Sudeste 0.6 -- -- 77
2018-03-30 17:00:00 5.4 14 Sudeste 39 Sur 0.4 -- -- 72
2018-03-30 16:00:00 5.9 13 Sur 42 Sudeste 0.2 -- -- 71
2018-03-30 15:00:00 5.2 8 Sudeste 36 Sudeste 0.2 -- -- 77
2018-03-30 14:00:00 4.9 14 Sur 42 Sudeste 0.2 -- -- 73
2018-03-30 13:00:00 6.4 16 Sudeste 53 Sudeste 0 -- -- 61
2018-03-30 12:00:00 6.3 24 Sudeste 54 Sudeste 0 -- -- 55
2018-03-30 11:00:00 4.8 23 Sudeste 50 Sudeste 0 -- -- 58
2018-03-30 10:00:00 3.5 12 Sur 33 Sudeste 0 -- -- 62
2018-03-30 09:00:00 3.1 11 Sudeste 26 Sudeste 0 -- -- 57
2018-03-30 08:00:00 1.9 5 Este 27 Sudeste 0 -- -- 70
2018-03-30 07:00:00 1 5 Sur 11 Oeste 0 -- -- 90
2018-03-30 06:00:00 2.6 8 Este 26 Nordeste 0.2 -- -- 78
2018-03-30 05:00:00 2.2 7 Este 24 Este 0.4 -- -- 85
2018-03-30 04:00:00 2.6 11 Nordeste 37 Nordeste 0.2 -- -- 84
2018-03-30 03:00:00 2.9 8 Nordeste 15 Este 0.2 -- -- 88
2018-03-30 02:00:00 3.2 3 Noroeste 33 Sudeste 0.4 -- -- 93
2018-03-30 01:00:00 4 2 Norte 7 Este 0.8 -- -- 98
2018-03-30 00:00:00 4.2 0 Calma 4 Oeste 0.4 -- -- 98
2018-03-29 23:00:00 4.5 0 Calma 4 Sudoeste 2.4 -- -- 96
2018-03-29 22:00:00 4.9 2 Oeste 6 Oeste 1.2 -- -- 96
2018-03-29 21:00:00 6 2 Sudoeste 24 Sur 0.4 -- -- 84
2018-03-29 20:00:00 6.7 6 Sur 24 Sudeste 0 -- -- 76
2018-03-29 19:00:00 5.9 3 Sur 13 Nordeste 1.8 -- -- 89
2018-03-29 18:00:00 6.9 4 Oeste 28 Sudeste 1.2 -- -- 79
2018-03-29 17:00:00 8.9 12 Sudeste 25 Sudeste 0 -- -- 62
2018-03-29 16:00:00 8.7 9 Sur 23 Sudoeste 0 -- -- 68
2018-03-29 15:00:00 9.2 8 Sudeste 36 Sudoeste 0 -- -- 60
2018-03-29 14:00:00 10 9 Sudoeste 29 Sudeste 0 -- -- 57
2018-03-29 13:00:00 8.9 12 Sur 25 Sur 0 -- -- 56
2018-03-29 12:00:00 8.4 10 Sur 32 Sur 0 -- -- 59
2018-03-29 11:00:00 5.7 6 Sur 23 Sudeste 0 -- -- 70
2018-03-29 10:00:00 2.3 2 Sur 17 Sudoeste 0 -- -- 80
2018-03-29 09:00:00 0.8 4 Sur 12 Sur 0 -- -- 91
2018-03-29 08:00:00 -0.5 3 Norte 8 Norte 0.2 -- -- 100
2018-03-29 07:00:00 -0.5 2 Noroeste 7 Noroeste 0 -- -- 100
2018-03-29 06:00:00 0 2 Sudeste 8 Oeste 0 -- -- 100
2018-03-29 05:00:00 0.7 2 Sudeste 8 Oeste 0 -- -- 99
2018-03-29 04:00:00 1.9 3 Sudoeste 10 Sudoeste 0 -- -- 99
2018-03-29 03:00:00 2.9 2 Sur 7 Este 0 -- -- 99
2018-03-29 02:00:00 3.5 2 Sur 9 Sudoeste 0 -- -- 97
2018-03-29 01:00:00 4.5 0 Calma 3 Sudoeste 0 -- -- 98
2018-03-29 00:00:00 5 0 Calma 5 Noroeste 0.4 -- -- 96
2018-03-28 23:00:00 5.5 3 Noroeste 13 Noroeste 0.4 -- -- 94
2018-03-28 22:00:00 6.3 7 Norte 17 Nordeste 0.2 -- -- 90
2018-03-28 21:00:00 7.2 3 Sudoeste 9 Norte 0 -- -- 93
2018-03-28 20:00:00 7.6 3 Norte 8 Noroeste 0 -- -- 92
2018-03-28 19:00:00 8 0 Calma 30 Norte 1 -- -- 89
2018-03-28 18:00:00 10.6 15 Nordeste 30 Norte 0 -- -- 76
2018-03-28 17:00:00 11.9 5 Norte 12 Norte 0.2 -- -- 74
2018-03-28 16:00:00 11.8 5 Nordeste 16 Nordeste 0.4 -- -- 71
2018-03-28 15:00:00 11.8 2 Norte 20 Norte 0.2 -- -- 77
2018-03-28 14:00:00 12 12 Nordeste 30 Nordeste 0 -- -- 68
2018-03-28 13:00:00 12.3 5 Sur 19 Sur 0 -- -- 62
2018-03-28 12:00:00 11.9 7 Sur 19 Sur 0 -- -- 61
2018-03-28 11:00:00 10.9 12 Sudoeste 27 Sudoeste 0 -- -- 60
2018-03-28 10:00:00 8.4 4 Sur 14 Sur 0 -- -- 68
2018-03-28 09:00:00 8.4 4 Noroeste 30 Sur 0 -- -- 60
2018-03-28 08:00:00 10 13 Sur 30 Sudoeste 0 -- -- 47
2018-03-28 07:00:00 9.2 7 Sur 24 Sur 0 -- -- 48
2018-03-28 06:00:00 3.3 3 Sudeste 10 Norte 0 -- -- 82
2018-03-28 05:00:00 3.5 6 Noroeste 15 Este 0 -- -- 81
2018-03-28 04:00:00 3 5 Norte 13 Este 0 -- -- 86
2018-03-28 03:00:00 3.4 3 Sur 9 Oeste 0 -- -- 83
2018-03-28 02:00:00 4 4 Sudoeste 10 Sudeste 0 -- -- 82
2018-03-28 01:00:00 4.8 5 Sudeste 10 Oeste 0 -- -- 80
2018-03-28 00:00:00 5.3 2 Norte 9 Sudoeste 0 -- -- 80
2018-03-27 23:00:00 6.2 4 Sudoeste 10 Oeste 0 -- -- 77
2018-03-27 22:00:00 7.4 2 Sur 6 Oeste 0 -- -- 75
2018-03-27 21:00:00 10 4 Sudoeste 13 Este 0 -- -- 65
2018-03-27 20:00:00 13.7 5 Norte 19 Este 0 -- -- 53
2018-03-27 19:00:00 16.3 4 Noroeste 22 Nordeste 0 -- -- 43
2018-03-27 18:00:00 17.8 9 Norte 30 Nordeste 0 -- -- 44
2018-03-27 17:00:00 18.2 16 Nordeste 34 Nordeste 0 -- -- 43
2018-03-27 16:00:00 18 10 Norte 22 Nordeste 0 -- -- 44
2018-03-27 15:00:00 17.3 3 Oeste 18 Nordeste 0 -- -- 51
2018-03-27 14:00:00 15.9 8 Norte 28 Nordeste 0 -- -- 61
2018-03-27 13:00:00 14.8 8 Norte 15 Norte 0 -- -- 65
2018-03-27 12:00:00 10.3 3 Este 5 Este 0 -- -- 83
2018-03-27 11:00:00 6 3 Norte 6 Noroeste 0 -- -- 96
2018-03-27 10:00:00 4.6 2 Noroeste 5 Sudoeste 0 -- -- 100
2018-03-27 09:00:00 3.2 5 Sudeste 8 Oeste 0 -- -- 100
2018-03-27 08:00:00 1.6 4 Sur 10 Este 0 -- -- 100
2018-03-27 07:00:00 1.1 4 Sur 7 Oeste 0 -- -- 100
2018-03-27 06:00:00 1.4 2 Norte 6 Sudoeste 0 -- -- 100
2018-03-27 05:00:00 1.8 3 Sudoeste 6 Noroeste 0 -- -- 100
2018-03-27 04:00:00 2.3 3 Norte 5 Sudeste 0 -- -- 100
2018-03-27 03:00:00 2.7 2 Sur 7 Sudeste 0 -- -- 98
2018-03-27 02:00:00 3.5 2 Nordeste 5 Oeste 0 -- -- 97
2018-03-27 01:00:00 4.7 2 Sur 6 Sudoeste 0 -- -- 95
2018-03-27 00:00:00 6.3 3 Sur 17 Noroeste 0 -- -- 89
2018-03-26 23:00:00 9.9 10 Norte 30 Nordeste 0 -- -- 78
2018-03-26 22:00:00 7.1 6 Sur 12 Oeste 0 -- -- 95
2018-03-26 21:00:00 7.4 2 Noroeste 5 Noroeste 0 -- -- 95
2018-03-26 20:00:00 8 0 Calma 4 Oeste 0 -- -- 92
2018-03-26 19:00:00 8.8 2 Sudoeste 13 Sudoeste 0.6 -- -- 86
2018-03-26 18:00:00 9.9 3 Norte 17 Norte 0 -- -- 76
2018-03-26 17:00:00 10.9 5 Norte 12 Norte 0 -- -- 66
2018-03-26 16:00:00 11.9 4 Sudoeste 12 Norte 0 -- -- 58
2018-03-26 15:00:00 11.2 7 Norte 15 Sudoeste 0 -- -- 60
2018-03-26 14:00:00 9.8 6 Nordeste 14 Nordeste 0 -- -- 60
2018-03-26 13:00:00 8.7 3 Norte 10 Nordeste 0 -- -- 63
2018-03-26 12:00:00 6.3 2 Nordeste 5 Sudoeste 0 -- -- 76
2018-03-26 11:00:00 3.6 2 Sudeste 3 Este 0 -- -- 86
2018-03-26 10:00:00 2.1 0 Calma 5 Sudeste 0 -- -- 99
2018-03-26 09:00:00 1 3 Noroeste 8 Oeste 0 -- -- 100
2018-03-26 08:00:00 0.4 2 Oeste 5 Sur 0 -- -- 100
2018-03-26 07:00:00 -0.2 2 Sudeste 4 Noroeste 0 -- -- 100
2018-03-26 06:00:00 -0.2 0 Calma 4 Sudoeste 0 -- -- 99
2018-03-26 05:00:00 0.2 0 Calma 3 Oeste 0 -- -- 98
2018-03-26 04:00:00 1.2 0 Calma 3 Oeste 0 -- -- 98
2018-03-26 03:00:00 1.6 2 Sur 3 Sur 0 -- -- 95
2018-03-26 02:00:00 2.2 0 Calma 6 Noroeste 0 -- -- 94
2018-03-26 01:00:00 3.2 4 Norte 11 Norte 0 -- -- 95
2018-03-26 00:00:00 3.3 3 Norte 8 Noroeste 0 -- -- 94
2018-03-25 23:00:00 3.7 5 Norte 14 Noroeste 0 -- -- 90
2018-03-25 22:00:00 3.7 0 Calma 7 Nordeste 0 -- -- 96
2018-03-25 21:00:00 4 4 Norte 12 Noroeste 0 -- -- 94
2018-03-25 20:00:00 4.1 3 Norte 11 Norte 0 -- -- 95
2018-03-25 19:00:00 4.8 6 Nordeste 18 Norte 0 -- -- 85
2018-03-25 18:00:00 5 8 Norte 17 Nordeste 0.2 -- -- 86
2018-03-25 17:00:00 4.5 4 Norte 14 Nordeste 0.4 -- -- 94
2018-03-25 16:00:00 4.6 12 Nordeste 28 Nordeste 1 -- -- 87
2018-03-25 15:00:00 4.6 8 Norte 28 Este 0.6 -- -- 90
2018-03-25 14:00:00 5.3 17 Nordeste 36 Nordeste 0.2 -- -- 79
2018-03-25 13:00:00 3.8 9 Norte 22 Norte 1 -- -- 92
2018-03-25 12:00:00 4.6 9 Nordeste 30 Nordeste 0 -- -- 78
2018-03-25 11:00:00 4.9 12 Nordeste 31 Este 0 -- -- 68
2018-03-25 10:00:00 4.1 12 Nordeste 28 Nordeste 0 -- -- 76
2018-03-25 09:00:00 2.3 4 Norte 10 Noroeste 0.2 -- -- 99
2018-03-25 08:00:00 1.9 0 Calma 7 Sur 0.2 -- -- 99
2018-03-25 07:00:00 2 0 Calma 4 Norte 0.4 -- -- 98
2018-03-25 06:00:00 2.2 2 Norte 13 Norte 0.4 -- -- 96
2018-03-25 05:00:00 3.3 3 Norte 19 Nordeste 0 -- -- 89
2018-03-25 03:00:00 3.2 7 Norte 18 Nordeste 0 -- -- 81
2018-03-25 01:00:00 4.1 9 Nordeste 22 Nordeste 0 -- -- 78
2018-03-25 00:00:00 4.4 10 Norte 31 Nordeste 0 -- -- 73
2018-03-24 23:00:00 4.7 13 Nordeste 31 Nordeste 0 -- -- 72
2018-03-24 22:00:00 3.8 6 Norte 17 Nordeste 0 -- -- 82
2018-03-24 21:00:00 3.4 3 Sudeste 31 Este 0.2 -- -- 93
2018-03-24 20:00:00 4.6 14 Nordeste 35 Este 0 -- -- 79
2018-03-24 19:00:00 4.6 8 Nordeste 32 Nordeste 0.2 -- -- 83
2018-03-24 18:00:00 4.1 4 Este 21 Nordeste 1.8 -- -- 92
2018-03-24 17:00:00 4.5 8 Nordeste 26 Este 3 -- -- 89
2018-03-24 16:00:00 4.5 8 Nordeste 20 Norte 4.2 -- -- 91
2018-03-24 15:00:00 4.4 13 Nordeste 27 Norte 5.4 -- -- 91
2018-03-24 14:00:00 5.1 11 Norte 45 Este 2.6 -- -- 88
2018-03-24 13:00:00 4.6 8 Norte 31 Nordeste 3.2 -- -- 91
2018-03-24 12:00:00 4.2 10 Norte 41 Norte 3.6 -- -- 90
2018-03-24 11:00:00 4 13 Norte 34 Norte 2.8 -- -- 90
2018-03-24 10:00:00 4 12 Nordeste 36 Nordeste 2.4 -- -- 86
2018-03-24 09:00:00 3.3 10 Nordeste 38 Nordeste 3.6 -- -- 87
2018-03-24 08:00:00 3 9 Nordeste 51 Nordeste 1.2 -- -- 86
2018-03-24 07:00:00 2.8 16 Nordeste 50 Nordeste 0.6 -- -- 84
2018-03-24 06:00:00 3.2 27 Nordeste 68 Nordeste 0.8 -- -- 77
2018-03-24 05:00:00 3.3 14 Nordeste 47 Nordeste 0.2 -- -- 79
2018-03-24 04:00:00 3 11 Nordeste 45 Nordeste 1.6 -- -- 79
2018-03-24 03:00:00 2.6 9 Nordeste 24 Este 1.2 -- -- 85
2018-03-24 02:00:00 3.6 6 Nordeste 42 Este 0.8 -- -- 72
2018-03-24 01:00:00 3.4 9 Nordeste 43 Nordeste 0.2 -- -- 77
2018-03-24 00:00:00 4 12 Este 38 Nordeste 0.2 -- -- 73
2018-03-23 23:00:00 4.7 13 Nordeste 26 Sudeste 0 -- -- 66
2018-03-23 22:00:00 4.2 6 Sudeste 30 Nordeste 0 -- -- 85
2018-03-23 21:00:00 4.3 3 Sur 34 Nordeste 4.2 -- -- 86
2018-03-23 20:00:00 8.5 4 Oeste 36 Sudeste 1.8 -- -- 81
2018-03-23 19:00:00 10.5 16 Sudeste 41 Sudeste 0 -- -- 61
2018-03-23 18:00:00 10.7 15 Sudeste 44 Sur 0 -- -- 58
2018-03-23 17:00:00 12.8 11 Sudeste 31 Sur 0 -- -- 45
2018-03-23 16:00:00 13.4 14 Sur 42 Sudeste 0 -- -- 55
2018-03-23 15:00:00 13.6 13 Sur 39 Sur 0 -- -- 56
2018-03-23 14:00:00 13 13 Sudeste 32 Sudeste 0 -- -- 50
2018-03-23 13:00:00 13.1 10 Sudeste 25 Sur 0 -- -- 53
2018-03-23 12:00:00 11.8 5 Este 15 Sudeste 0 -- -- 73
2018-03-23 11:00:00 8.4 2 Este 8 Noroeste 0 -- -- 96
2018-03-23 10:00:00 6.6 2 Sudoeste 8 Este 0 -- -- 100
2018-03-23 09:00:00 5.3 0 Calma 8 Sur 0 -- -- 100
2018-03-23 08:00:00 4.3 3 Sur 8 Este 0.2 -- -- 100
2018-03-23 07:00:00 4.3 4 Oeste 8 Sudeste 0.6 -- -- 100
2018-03-23 06:00:00 4.1 2 Sudoeste 6 Este 0.6 -- -- 100
2018-03-23 05:00:00 4 4 Sur 6 Sudoeste 0.2 -- -- 100
2018-03-23 04:00:00 3.8 0 Calma 8 Sudoeste 1 -- -- 100
2018-03-23 03:00:00 3.6 2 Sudeste 5 Sudoeste 0.8 -- -- 98
2018-03-23 02:00:00 3.4 3 Sur 6 Sudeste 0.6 -- -- 95
2018-03-23 01:00:00 3.4 2 Sudoeste 6 Sudeste 0 -- -- 89
2018-03-23 00:00:00 3.2 4 Sur 9 Sudeste 0 -- -- 84